Aviation Digital Data Service (ADDS)

Output produced by METARs form (0609 UTC 21 December 2014)
found at http://aviationweather.gov/adds/metars/
 
KDAG 210550Z AUTO 28004KT 10SM CLR 06/04 A3019 RMK AO2 SLP222 T00610039 10122 20061 51019
KDAG 210528Z 2106/2206 18003KT P6SM FEW028 BKN250 
     FM210700 27008KT P6SM SCT030 BKN250 
     FM211700 29006KT P6SM SCT250 
     FM212100 VRB04KT P6SM FEW250 
     FM220300 17004KT P6SM FEW250
       
KEDW 210558Z AUTO 32005KT 10SM CLR 07/05 A3018 RMK AO2 SLP224 52018
TAF KEDW 2002/2108 VRB06KT 9999 BKN150 BKN200 QNH3012INS 
     BECMG 2020/2021 26012KT 9999 SCT120 SCT150 BKN200 QNH3010INS 
     BECMG 2102/2103 VRB06KT 9999 BKN250 QNH3012INS TX14/2022Z TN02/2013Z LAST NO AMDS AFT 2006 NEXT 2210
       
KVCV 210555Z AUTO 00000KT 10SM CLR 09/06 A3019 RMK AO2
KONT 210553Z 07003KT 6SM HZ SCT180 BKN240 11/07 A3015 RMK AO2 SLP210 T01060072 10144 20100 50005
KONT 210536Z 2106/2212 VRB06KT P6SM FEW030 SCT150
       
KSNA 210553Z 00000KT 10SM BKN027 17/12 A3015 RMK AO2 SLP208 T01720122 10178 20167 50001
KSNA 210536Z 2106/2206 VRB06KT P6SM SCT035 
     TEMPO 2106/2110 BKN029
       
KSAN 210551Z 00000KT 10SM BKN035 17/12 A3017 RMK AO2 SLP215 T01720117 10172 20167 58002 $
KSAN 210536Z 2106/2212 VRB05KT P6SM BKN035 OVC250 
     FM211300 VRB05KT P6SM SCT035 SCT250 
     FM212130 30009KT P6SM SCT250 
     FM220100 VRB05KT P6SM SKC
       
KNXP 210556Z AUTO 27005KT 10SM CLR 07/03 A3023 RMK AO2 SLP225 T00720028 10128 20067 51010 $
TAF KNXP 2103/2203 22007KT 9999 FEW120 SCT250 QNH3017INS AUTOMATED SENSOR METWATCH 2103 TIL 2216 T05/2114Z T16/2123Z
       
KPSP 210553Z AUTO 35003KT 10SM CLR 13/06 A3016 RMK AO2 SLP213 T01330061 10178 20122 53010 TSNO
KPSP 210536Z 2106/2206 VRB06KT P6SM SCT200
       
KLAX 210553Z 00000KT 7SM SCT015 BKN200 14/10 A3015 RMK AO2 SLP207 T01440100 10161 20139 56001
KLAX 210540Z 2106/2212 VRB03KT P6SM SCT018 BKN200 
     FM211000 04006KT P6SM BKN200 
     FM212000 26008KT P6SM SCT200 
     FM220500 35006KT P6SM SCT200 
     FM221000 VRB03KT P6SM SCT200
       
KCNO 210601Z 14004KT 3SM BR CLR 09/08 A3017 RMK AO2 T00940083
KSMO 210551Z AUTO 03003KT 8SM CLR 14/09 A3015 RMK AO2 SLP208 T01440089 10167 20139 56002
KLGB 210553Z 07004KT 7SM BKN020 14/12 A3014 RMK AO2 SLP207 T01440122 10167 20144 50001
KLGB 210540Z 2106/2206 08005KT P6SM BKN025 BKN200 
     FM211400 VRB03KT P6SM SCT025 BKN200 
     FM212000 28006KT P6SM SCT200 
     FM220300 VRB03KT P6SM SCT200
       
KVNY 210551Z 00000KT 7SM CLR 12/09 A3015 RMK AO2 SLP206 T01220089 10156 20122 53002
KVNY 210540Z 2106/2206 VRB03KT P6SM BKN200 
     FM211200 34008KT P6SM BKN200 
     FM211900 35015G20KT P6SM BKN200 
     FM220300 36010KT P6SM SCT200
       
KBUR 210553Z 06003KT 9SM CLR 13/08 A3014 RMK AO2 SLP201 T01330083 10161 20128 53002
KBUR 210540Z 2106/2206 VRB03KT P6SM BKN200 
     FM212100 32007KT P6SM BKN200 
     FM220200 VRB03KT P6SM SCT200
       
KBFL 210554Z 32005KT 10SM OVC039 13/11 A3026 RMK AO2 SLP245 60000 T01330111 10167 20133 53012
KBFL 210529Z 2106/2206 VRB03KT P6SM BKN035 BKN080 
     FM210800 VRB03KT 5SM BR SCT030 BKN050 
     TEMPO 2110/2114 2SM BR BKN030
       
KPMD 210553Z AUTO 31004KT 10SM CLR 10/07 A3021 RMK AO2 SLP226 T01000067 10144 20094 53013
KPMD 210540Z 2106/2206 30006KT P6SM BKN200 
     FM212100 28012KT P6SM BKN200 
     FM220400 VRB03KT P6SM SCT200
       
KOXR 210551Z AUTO 08003KT 10SM CLR 14/11 A3013 RMK AO2 SLP204 T01390111 10178 20139 53004
KOXR 210540Z 2106/2206 VRB03KT P6SM BKN200 
     FM211000 04010KT P6SM BKN200 
     FM211900 28009KT P6SM SCT200 
     FM220400 VRB03KT P6SM SCT200
       
KWJF 210556Z AUTO 30012KT 10SM CLR 11/07 A3020 RMK AO2 SLP232 T01060072 10133 20106 53016
KWJF 210540Z 2106/2206 30006KT P6SM BKN200 
     FM212100 28012KT P6SM BKN200 
     FM220400 VRB03KT P6SM SCT200
       
KCMA 210555Z 00000KT 10SM CLR 13/11 A3014 RMK AO2 SLP215 T01330111 10172 20133 53007
KFAT 210553Z 35004KT 8SM FEW085 12/11 A3027 RMK AO2 SLP249 T01220106 10156 20117 53010
KFAT 210529Z 2106/2206 VRB04KT P6SM SCT120 
     TEMPO 2107/2110 5SM BR 
     FM211000 VRB03KT 5SM BR SCT015 SCT050 
     TEMPO 2111/2115 2SM BR BKN015 
     FM211900 VRB03KT 5SM BR SCT035 BKN050
       
KEED 210556Z AUTO VRB05KT 10SM CLR 11/04 A3015 RMK AO2 SLP200 T01060044 10156 20106 53005
KEED 210528Z 2106/2206 28009KT P6SM BKN250 
     FM211900 01008KT P6SM BKN250 
     FM220200 32007KT P6SM SCT250
       
KLSV 210558Z AUTO 00000KT 10SM CLR 07/04 A3016 RMK AO2 SLP214 T00690037 10124 20069 51010 $
TAF KLSV 2101/2207 34006KT 9999 FEW200 QNH3008INS 
     BECMG 2116/2117 14006KT 9999 FEW250 QNH3009INS 
     BECMG 2203/2204 34006KT 9999 SKC QNH3008INS TX15/2123Z TN05/2113Z
       
KLAS 210556Z 21006KT 10SM SCT250 09/03 A3012 RMK AO2 SLP199 T00940028 10122 20089 51008
KLAS 210528Z 2106/2206 20008KT P6SM FEW100 SCT250 
     FM211700 VRB05KT P6SM FEW140 BKN250 
     FM220300 21006KT P6SM SCT250
       
KHII 210555Z AUTO 01003KT 10SM CLR 12/04 A3014 RMK AO2
KIFP 210555Z AUTO 07003KT 10SM CLR 10/06 A3017 RMK AO2